createdAt,value
2018-09-18T00:01:11.772Z,14.20
2018-09-18T00:03:40.251Z,14.10
2018-09-18T00:06:08.735Z,14.20
2018-09-18T00:08:37.219Z,14.10
2018-09-18T00:11:06.906Z,14.10
2018-09-18T00:13:35.591Z,14.10
2018-09-18T00:16:04.195Z,14.10
2018-09-18T00:18:33.074Z,14.20
2018-09-18T00:21:01.619Z,14.10
2018-09-18T00:23:30.115Z,14.10
2018-09-18T00:25:58.770Z,14.10
2018-09-18T00:28:27.247Z,14.10
2018-09-18T00:30:55.810Z,14.10
2018-09-18T00:33:24.270Z,14.10
2018-09-18T00:35:52.723Z,14.10
2018-09-18T00:38:21.534Z,14.10
2018-09-18T00:40:50.237Z,14.10
2018-09-18T00:43:18.692Z,14.10
2018-09-18T00:45:47.215Z,14.10
2018-09-18T00:48:15.705Z,14.10
2018-09-18T00:50:44.228Z,14.10
2018-09-18T00:53:12.760Z,14.00
2018-09-18T00:55:41.257Z,14.00
2018-09-18T00:58:09.774Z,14.00
2018-09-18T01:00:38.289Z,14.00
2018-09-18T01:03:06.758Z,14.00
2018-09-18T01:05:35.394Z,14.00
2018-09-18T01:08:03.874Z,14.00
2018-09-18T01:10:32.390Z,14.10
2018-09-18T01:13:01.059Z,14.10
2018-09-18T01:15:29.587Z,14.10
2018-09-18T01:17:58.039Z,14.10
2018-09-18T01:20:26.525Z,14.10
2018-09-18T01:22:55.034Z,14.10
2018-09-18T01:25:23.505Z,14.10
2018-09-18T01:27:51.943Z,14.20
2018-09-18T01:30:20.403Z,14.20
2018-09-18T01:32:48.862Z,14.20
2018-09-18T01:35:17.346Z,14.10
2018-09-18T01:37:45.807Z,14.10
2018-09-18T01:40:14.292Z,14.10
2018-09-18T01:42:43.684Z,14.10
2018-09-18T01:45:12.178Z,14.10
2018-09-18T01:47:40.656Z,14.00
2018-09-18T01:50:09.150Z,14.00
2018-09-18T01:52:37.620Z,14.00
2018-09-18T01:55:06.115Z,14.00
2018-09-18T01:57:34.948Z,14.00
2018-09-18T02:00:03.502Z,13.90
2018-09-18T02:02:31.974Z,13.90
2018-09-18T02:05:00.437Z,13.90
2018-09-18T02:07:28.945Z,13.80
2018-09-18T02:09:57.400Z,13.80
2018-09-18T02:12:25.875Z,13.80
2018-09-18T02:14:54.346Z,13.80
2018-09-18T02:17:22.822Z,13.70
2018-09-18T02:19:51.283Z,13.70
2018-09-18T02:22:19.775Z,13.70
2018-09-18T02:24:48.234Z,13.70
2018-09-18T02:27:16.713Z,13.60
2018-09-18T02:29:45.272Z,13.60
2018-09-18T02:32:13.770Z,13.60
2018-09-18T02:34:42.234Z,13.60
2018-09-18T02:37:10.727Z,13.60
2018-09-18T02:39:39.229Z,13.60
2018-09-18T02:42:07.749Z,13.60
2018-09-18T02:44:36.210Z,13.60
2018-09-18T02:47:04.778Z,13.60
2018-09-18T02:49:33.264Z,13.60
2018-09-18T02:52:01.742Z,13.60
2018-09-18T02:54:30.238Z,13.60
2018-09-18T02:56:58.706Z,13.60
2018-09-18T02:59:28.214Z,13.60
2018-09-18T03:01:56.671Z,13.60
2018-09-18T03:04:25.150Z,13.60
2018-09-18T03:06:53.622Z,13.60
2018-09-18T03:09:22.086Z,13.60
2018-09-18T03:11:50.562Z,13.50
2018-09-18T03:14:19.023Z,13.50
2018-09-18T03:16:47.557Z,13.50
2018-09-18T03:19:16.011Z,13.50
2018-09-18T03:21:44.478Z,13.50
2018-09-18T03:24:12.960Z,13.40
2018-09-18T03:26:41.449Z,13.40
2018-09-18T03:29:09.927Z,13.40
2018-09-18T03:31:38.402Z,13.40
2018-09-18T03:34:06.891Z,13.40
2018-09-18T03:36:35.352Z,13.40
2018-09-18T03:39:04.913Z,13.40
2018-09-18T03:41:33.406Z,13.40
2018-09-18T03:44:01.896Z,13.30
2018-09-18T03:46:30.398Z,13.30
2018-09-18T03:48:58.863Z,13.30
2018-09-18T03:51:27.342Z,13.30
2018-09-18T03:53:55.805Z,13.30
2018-09-18T03:56:24.262Z,13.30
2018-09-18T03:58:52.736Z,13.20
2018-09-18T04:01:21.266Z,13.20
2018-09-18T04:03:49.755Z,13.30
2018-09-18T04:06:18.241Z,13.20
2018-09-18T04:08:46.699Z,13.20
2018-09-18T04:11:15.174Z,13.20
2018-09-18T04:13:43.645Z,13.20
2018-09-18T04:16:12.127Z,13.20
2018-09-18T04:18:40.645Z,13.10
2018-09-18T04:21:11.211Z,13.10
2018-09-18T04:23:39.674Z,13.10
2018-09-18T04:26:08.173Z,13.10
2018-09-18T04:28:36.650Z,13.10
2018-09-18T04:31:05.525Z,13.10
2018-09-18T04:33:33.994Z,13.00
2018-09-18T04:36:02.510Z,13.00
2018-09-18T04:38:30.966Z,13.00
2018-09-18T04:40:59.451Z,13.00
2018-09-18T04:43:27.893Z,13.00
2018-09-18T04:45:56.479Z,13.00
2018-09-18T04:48:25.091Z,13.00
2018-09-18T04:50:53.553Z,13.00
2018-09-18T04:53:22.035Z,13.00
2018-09-18T04:55:50.497Z,13.00
2018-09-18T04:58:18.979Z,13.00
2018-09-18T05:00:47.422Z,12.90
2018-09-18T05:03:15.931Z,12.90
2018-09-18T05:05:44.395Z,12.90
2018-09-18T05:08:12.901Z,12.90
2018-09-18T05:10:41.372Z,12.90
2018-09-18T05:13:09.885Z,12.80
2018-09-18T05:15:38.326Z,12.80
2018-09-18T05:18:06.810Z,12.80
2018-09-18T05:20:35.294Z,12.80
2018-09-18T05:23:03.778Z,12.80
2018-09-18T05:25:32.319Z,12.80
2018-09-18T05:28:00.928Z,12.80
2018-09-18T05:30:29.399Z,12.80
2018-09-18T05:32:57.917Z,12.80
2018-09-18T05:35:26.390Z,12.90
2018-09-18T05:37:54.902Z,12.90
2018-09-18T05:40:23.421Z,12.90
2018-09-18T05:42:51.942Z,12.90
2018-09-18T05:45:20.431Z,12.90
2018-09-18T05:47:48.915Z,13.00
2018-09-18T05:50:17.360Z,13.00
2018-09-18T05:52:45.911Z,13.00
2018-09-18T05:55:14.386Z,13.00
2018-09-18T05:57:42.947Z,13.10
2018-09-18T06:00:11.419Z,13.10
2018-09-18T06:02:39.958Z,13.10
2018-09-18T06:05:08.671Z,13.20
2018-09-18T06:07:37.163Z,13.20
2018-09-18T06:10:06.007Z,13.30
2018-09-18T06:12:34.564Z,13.40
2018-09-18T06:15:03.825Z,13.40
2018-09-18T06:17:32.526Z,13.50
2018-09-18T06:20:01.003Z,13.60
2018-09-18T06:22:29.462Z,13.70
2018-09-18T06:24:58.307Z,13.70
2018-09-18T06:27:26.782Z,13.80
2018-09-18T06:29:55.310Z,13.90
2018-09-18T06:32:23.841Z,14.00
2018-09-18T06:34:52.551Z,14.10
2018-09-18T06:37:21.026Z,14.20
2018-09-18T06:39:49.535Z,14.50
2018-09-18T06:42:18.042Z,14.70
2018-09-18T06:44:47.718Z,14.80
2018-09-18T06:47:16.551Z,14.80
2018-09-18T06:49:45.278Z,14.90
2018-09-18T06:52:13.723Z,15.00
2018-09-18T06:54:42.197Z,15.10
2018-09-18T06:57:10.662Z,15.20
2018-09-18T06:59:39.162Z,15.30
2018-09-18T07:02:07.650Z,15.40
2018-09-18T07:04:36.134Z,15.40
2018-09-18T07:07:04.806Z,15.50
2018-09-18T07:09:33.290Z,15.70
2018-09-18T07:12:01.783Z,15.90
2018-09-18T07:14:30.226Z,16.20
2018-09-18T07:16:58.946Z,16.40
2018-09-18T07:19:28.270Z,16.60
2018-09-18T07:21:56.730Z,16.90
2018-09-18T07:24:25.203Z,17.10
2018-09-18T07:26:53.678Z,17.30
2018-09-18T07:29:22.590Z,17.60
2018-09-18T07:31:51.319Z,17.80
2018-09-18T07:34:19.774Z,17.90
2018-09-18T07:36:48.293Z,18.20
2018-09-18T07:39:16.755Z,18.40
2018-09-18T07:41:45.252Z,18.70
2018-09-18T07:44:13.694Z,18.80
2018-09-18T07:46:42.207Z,18.90
2018-09-18T07:49:10.670Z,19.10
2018-09-18T07:51:39.141Z,19.20
2018-09-18T07:54:07.618Z,19.50
2018-09-18T07:56:36.114Z,19.70
2018-09-18T07:59:04.571Z,19.80
2018-09-18T08:01:34.235Z,20.10
2018-09-18T08:04:03.403Z,20.20
2018-09-18T08:06:32.703Z,20.40
2018-09-18T08:09:01.574Z,20.60
2018-09-18T08:11:31.167Z,20.80
2018-09-18T08:14:01.606Z,21.00
2018-09-18T08:16:30.307Z,21.10
2018-09-18T08:18:58.946Z,21.20
2018-09-18T08:21:28.506Z,21.40
2018-09-18T08:23:57.757Z,21.60
2018-09-18T08:26:26.683Z,21.90
2018-09-18T08:28:57.258Z,22.10
2018-09-18T08:31:26.424Z,22.30
2018-09-18T08:33:57.008Z,22.50
2018-09-18T08:36:26.636Z,22.60
2018-09-18T08:38:56.291Z,22.70
2018-09-18T08:41:28.116Z,23.00
2018-09-18T08:43:58.118Z,23.20
2018-09-18T08:46:28.466Z,23.40
2018-09-18T08:48:59.165Z,23.60
2018-09-18T08:51:29.443Z,23.80
2018-09-18T08:53:58.570Z,23.80
2018-09-18T08:56:28.747Z,23.90
2018-09-18T08:59:00.401Z,24.10
2018-09-18T09:01:29.514Z,24.10
2018-09-18T09:03:58.110Z,24.30
2018-09-18T09:06:26.774Z,24.70
2018-09-18T09:08:55.563Z,24.90
2018-09-18T09:11:24.058Z,25.20
2018-09-18T09:13:52.534Z,25.30
2018-09-18T09:16:21.198Z,25.50
2018-09-18T09:18:49.673Z,25.70
2018-09-18T09:21:18.205Z,25.80
2018-09-18T09:23:46.840Z,26.00
2018-09-18T09:26:15.506Z,26.10
2018-09-18T09:28:44.129Z,26.20
2018-09-18T09:31:12.590Z,26.30
2018-09-18T09:33:41.082Z,26.50
2018-09-18T09:36:09.558Z,26.60
2018-09-18T09:38:38.072Z,26.70
2018-09-18T09:41:07.129Z,26.80
2018-09-18T09:43:35.624Z,26.90
2018-09-18T09:46:04.284Z,27.10
2018-09-18T09:48:33.446Z,27.30
2018-09-18T09:51:02.588Z,27.40
2018-09-18T09:56:06.022Z,27.50
2018-09-18T09:58:34.432Z,27.60
2018-09-18T10:01:08.091Z,27.70
2018-09-18T10:03:36.494Z,27.90
2018-09-18T10:06:04.946Z,28.00
2018-09-18T10:08:33.370Z,28.10
2018-09-18T10:11:01.846Z,28.20
2018-09-18T10:13:30.441Z,28.20
2018-09-18T10:15:59.094Z,28.20
2018-09-18T10:18:27.504Z,28.20
2018-09-18T10:20:56.244Z,28.30
2018-09-18T10:23:24.679Z,28.30
2018-09-18T10:25:53.383Z,28.40
2018-09-18T10:28:21.959Z,28.30
2018-09-18T10:30:50.389Z,28.30
2018-09-18T10:33:18.817Z,28.40
2018-09-18T10:35:47.278Z,28.50
2018-09-18T10:38:15.859Z,28.50
2018-09-18T10:40:44.299Z,28.60
2018-09-18T10:43:12.915Z,28.70
2018-09-18T10:45:41.343Z,28.80
2018-09-18T10:48:09.747Z,28.90
2018-09-18T10:50:38.175Z,29.00
2018-09-18T10:53:06.591Z,29.10
2018-09-18T10:55:35.082Z,29.10
2018-09-18T10:58:03.990Z,29.20
2018-09-18T11:00:32.427Z,29.20
2018-09-18T11:03:00.862Z,29.10
2018-09-18T11:05:29.508Z,29.20
2018-09-18T11:07:58.170Z,29.20
2018-09-18T11:10:26.711Z,29.20
2018-09-18T11:12:55.306Z,29.20
2018-09-18T11:15:23.978Z,29.10
2018-09-18T11:19:17.030Z,29.00
2018-09-18T11:21:45.609Z,29.00
2018-09-18T11:24:14.190Z,29.00
2018-09-18T11:26:42.606Z,29.10
2018-09-18T11:29:11.007Z,29.10
2018-09-18T11:31:39.438Z,29.10
2018-09-18T11:34:07.909Z,29.20
2018-09-18T11:36:36.303Z,29.10
2018-09-18T11:39:06.143Z,29.10
2018-09-18T11:41:34.560Z,29.20
2018-09-18T11:44:03.014Z,29.10
2018-09-18T11:46:31.645Z,29.20
2018-09-18T11:49:00.277Z,29.20
2018-09-18T11:51:28.947Z,29.10
2018-09-18T11:53:57.500Z,29.20
2018-09-18T11:56:25.903Z,29.20
2018-09-18T11:58:54.678Z,29.20
2018-09-18T12:01:23.094Z,29.20
2018-09-18T12:03:51.540Z,29.20
2018-09-18T12:06:19.938Z,29.20
2018-09-18T12:08:48.440Z,29.30
2018-09-18T12:11:16.987Z,29.20
2018-09-18T12:13:45.586Z,29.20
2018-09-18T12:16:13.987Z,29.30
2018-09-18T12:18:42.412Z,29.30
2018-09-18T12:21:10.830Z,29.20
2018-09-18T12:23:39.265Z,29.20
2018-09-18T12:26:07.667Z,29.20
2018-09-18T12:28:36.439Z,29.20
2018-09-18T12:31:05.044Z,29.20
2018-09-18T12:33:33.430Z,29.20
2018-09-18T12:36:01.840Z,29.20
2018-09-18T12:38:30.263Z,29.20
2018-09-18T12:40:58.682Z,29.30
2018-09-18T12:43:27.094Z,29.20
2018-09-18T12:45:55.515Z,29.20
2018-09-18T12:48:23.912Z,29.10
2018-09-18T12:50:52.367Z,29.10
2018-09-18T12:53:20.980Z,29.10
2018-09-18T12:55:49.388Z,29.00
2018-09-18T12:58:17.852Z,29.10
2018-09-18T13:00:46.439Z,29.10
2018-09-18T13:03:14.842Z,29.20
2018-09-18T13:05:43.274Z,29.20
2018-09-18T13:08:11.893Z,29.30
2018-09-18T13:10:40.499Z,29.20
2018-09-18T13:13:08.978Z,29.20
2018-09-18T13:15:37.768Z,29.20
2018-09-18T13:18:06.235Z,29.10
2018-09-18T13:20:34.666Z,29.10
2018-09-18T13:23:03.123Z,29.10
2018-09-18T13:25:31.592Z,29.10
2018-09-18T13:28:00.020Z,29.10
2018-09-18T13:30:28.543Z,29.00
2018-09-18T13:32:57.064Z,29.10
2018-09-18T13:35:25.523Z,29.00
2018-09-18T13:37:53.955Z,29.10
2018-09-18T13:40:22.375Z,29.10
2018-09-18T13:42:50.820Z,29.10
2018-09-18T13:45:19.256Z,29.10
2018-09-18T13:47:47.686Z,29.10
2018-09-18T13:50:16.170Z,29.20
2018-09-18T13:52:45.093Z,29.20
2018-09-18T13:55:14.190Z,29.20
2018-09-18T13:57:42.722Z,29.20
2018-09-18T14:00:11.594Z,29.40
2018-09-18T14:02:40.075Z,29.40
2018-09-18T14:05:08.664Z,29.50
2018-09-18T14:07:37.082Z,29.50
2018-09-18T14:10:06.907Z,29.50
2018-09-18T14:12:35.502Z,29.40
2018-09-18T14:15:04.095Z,29.40
2018-09-18T14:17:32.543Z,29.40
2018-09-18T14:20:00.954Z,29.40
2018-09-18T14:22:29.387Z,29.40
2018-09-18T14:24:57.798Z,29.30
2018-09-18T14:27:26.221Z,29.30
2018-09-18T14:29:54.635Z,29.30
2018-09-18T14:32:23.169Z,29.30
2018-09-18T14:34:51.773Z,29.40
2018-09-18T14:37:20.365Z,29.30
2018-09-18T14:42:47.656Z,29.20
2018-09-18T14:45:16.158Z,29.20
2018-09-18T14:47:44.715Z,29.20
2018-09-18T14:50:13.311Z,29.20
2018-09-18T14:52:41.741Z,29.10
2018-09-18T14:55:10.172Z,29.20
2018-09-18T14:57:38.579Z,29.10
2018-09-18T15:00:07.406Z,29.10
2018-09-18T15:02:35.994Z,29.00
2018-09-18T15:05:04.787Z,29.00
2018-09-18T15:07:33.226Z,28.90
2018-09-18T15:10:01.656Z,28.90
2018-09-18T15:12:30.124Z,28.80
2018-09-18T15:14:58.554Z,28.80
2018-09-18T15:17:26.971Z,28.70
2018-09-18T15:19:55.378Z,28.60
2018-09-18T15:22:23.785Z,28.60
2018-09-18T15:24:52.208Z,28.60
2018-09-18T15:27:20.614Z,28.60
2018-09-18T15:29:49.031Z,28.60
2018-09-18T15:32:17.553Z,28.50
2018-09-18T15:34:46.142Z,28.50
2018-09-18T15:37:14.562Z,28.40
2018-09-18T15:39:43.084Z,28.40
2018-09-18T15:42:11.630Z,28.30
2018-09-18T15:44:40.076Z,28.30
2018-09-18T15:47:08.482Z,28.20
2018-09-18T15:49:36.914Z,28.20
2018-09-18T15:52:05.467Z,28.20
2018-09-18T15:54:34.019Z,28.20
2018-09-18T15:57:02.462Z,28.10
2018-09-18T15:59:30.910Z,28.10
2018-09-18T16:01:59.370Z,28.00
2018-09-18T16:04:27.805Z,27.90
2018-09-18T16:06:56.261Z,27.80
2018-09-18T16:09:24.826Z,27.80
2018-09-18T16:11:53.259Z,27.70
2018-09-18T16:14:21.698Z,27.70
2018-09-18T16:16:50.334Z,27.70
2018-09-18T16:19:18.995Z,27.70
2018-09-18T16:21:47.590Z,27.60
2018-09-18T16:24:15.994Z,27.40
2018-09-18T16:26:44.425Z,27.40
2018-09-18T16:29:12.834Z,27.20
2018-09-18T16:31:41.251Z,27.10
2018-09-18T16:34:09.656Z,27.10
2018-09-18T16:36:38.131Z,27.00
2018-09-18T16:39:07.071Z,26.90
2018-09-18T16:41:35.502Z,26.80
2018-09-18T16:44:03.912Z,26.70
2018-09-18T16:46:32.344Z,26.70
2018-09-18T16:49:02.856Z,26.60
2018-09-18T16:51:36.974Z,26.60
2018-09-18T16:54:05.393Z,26.50
2018-09-18T16:56:33.844Z,26.40
2018-09-18T16:59:02.262Z,26.30
2018-09-18T17:01:30.708Z,26.10
2018-09-18T17:04:01.970Z,26.00
2018-09-18T17:06:30.411Z,25.90
2018-09-18T17:08:59.002Z,25.80
2018-09-18T17:11:27.442Z,25.70
2018-09-18T17:13:55.849Z,25.60
2018-09-18T17:16:24.303Z,25.40
2018-09-18T17:18:52.914Z,25.40
2018-09-18T17:21:21.303Z,25.50
2018-09-18T17:23:49.727Z,25.50
2018-09-18T17:26:18.230Z,25.60
2018-09-18T17:28:46.839Z,25.50
2018-09-18T17:31:15.282Z,25.50
2018-09-18T17:33:43.716Z,25.40
2018-09-18T17:36:12.159Z,25.20
2018-09-18T17:38:40.569Z,25.10
2018-09-18T17:41:09.494Z,25.00
2018-09-18T17:43:39.014Z,24.80
2018-09-18T17:46:07.579Z,24.70
2018-09-18T17:48:36.000Z,24.50
2018-09-18T17:51:04.407Z,24.40
2018-09-18T17:53:32.893Z,24.30
2018-09-18T17:56:01.469Z,24.20
2018-09-18T17:58:29.889Z,24.00
2018-09-18T18:00:58.328Z,24.00
2018-09-18T18:03:26.793Z,24.10
2018-09-18T18:05:55.212Z,24.00
2018-09-18T18:08:23.715Z,23.90
2018-09-18T18:10:52.348Z,23.90
2018-09-18T18:13:20.883Z,23.90
2018-09-18T18:15:49.914Z,23.80
2018-09-18T18:18:18.341Z,23.80
2018-09-18T18:20:46.848Z,23.70
2018-09-18T18:23:15.423Z,23.60
2018-09-18T18:25:43.868Z,23.70
2018-09-18T18:28:12.341Z,23.70
2018-09-18T18:30:40.815Z,23.70
2018-09-18T18:33:09.313Z,23.70
2018-09-18T18:35:38.214Z,23.60
2018-09-18T18:38:06.921Z,23.50
2018-09-18T18:40:35.374Z,23.40
2018-09-18T18:43:03.854Z,23.30
2018-09-18T18:45:33.935Z,23.20
2018-09-18T18:48:03.098Z,23.10
2018-09-18T18:50:32.233Z,23.00
2018-09-18T18:53:00.654Z,22.90
2018-09-18T18:55:29.423Z,22.80
2018-09-18T18:57:57.854Z,22.70
2018-09-18T19:00:26.448Z,22.60
2018-09-18T19:02:55.010Z,22.60
2018-09-18T19:05:23.465Z,22.60
2018-09-18T19:07:51.864Z,22.50
2018-09-18T19:10:20.518Z,22.30
2018-09-18T19:12:48.982Z,22.20
2018-09-18T19:15:17.404Z,22.30
2018-09-18T19:17:45.836Z,22.20
2018-09-18T19:20:14.244Z,22.20
2018-09-18T19:22:44.098Z,22.10
2018-09-18T19:25:12.524Z,22.10
2018-09-18T19:28:11.842Z,22.10
2018-09-18T19:30:40.608Z,22.10
2018-09-18T19:33:10.622Z,22.00
2018-09-18T19:35:39.064Z,21.90
2018-09-18T19:38:07.513Z,21.80
2018-09-18T19:40:35.936Z,21.80
2018-09-18T19:43:04.726Z,21.70
2018-09-18T19:45:33.314Z,21.60
2018-09-18T19:48:01.775Z,21.50
2018-09-18T19:50:30.328Z,21.40
2018-09-18T19:52:58.882Z,21.30
2018-09-18T19:55:27.438Z,21.20
2018-09-18T19:57:56.238Z,21.10
2018-09-18T20:00:24.983Z,21.00
2018-09-18T20:02:53.922Z,20.80
2018-09-18T20:05:22.335Z,20.80
2018-09-18T20:07:50.802Z,20.70
2018-09-18T20:10:19.503Z,20.60
2018-09-18T20:12:47.955Z,20.50
2018-09-18T20:15:16.616Z,20.40
2018-09-18T20:17:45.611Z,20.40
2018-09-18T20:20:14.415Z,20.30
2018-09-18T20:22:42.855Z,20.30
2018-09-18T20:25:11.257Z,20.30
2018-09-18T20:27:39.748Z,20.20
2018-09-18T20:30:08.654Z,20.10
2018-09-18T20:32:37.413Z,20.00
2018-09-18T20:35:06.310Z,20.00
2018-09-18T20:37:34.717Z,19.90
2018-09-18T20:40:03.490Z,19.80
2018-09-18T20:42:31.930Z,19.70
2018-09-18T20:45:00.386Z,19.70
2018-09-18T20:47:28.842Z,19.70
2018-09-18T20:49:57.270Z,19.70
2018-09-18T20:52:25.675Z,19.60
2018-09-18T20:54:54.107Z,19.70
2018-09-18T20:57:22.530Z,19.70
2018-09-18T20:59:50.957Z,19.70
2018-09-18T21:02:19.373Z,19.70
2018-09-18T21:04:47.859Z,19.60
2018-09-18T21:07:16.272Z,19.50
2018-09-18T21:09:44.707Z,19.50
2018-09-18T21:12:13.110Z,19.40
2018-09-18T21:14:41.523Z,19.40
2018-09-18T21:17:09.946Z,19.40
2018-09-18T21:19:38.421Z,19.30
2018-09-18T21:22:06.841Z,19.30
2018-09-18T21:24:35.325Z,19.20
2018-09-18T21:27:03.851Z,19.10
2018-09-18T21:29:32.283Z,19.10
2018-09-18T21:32:00.695Z,19.00
2018-09-18T21:34:29.129Z,18.90
2018-09-18T21:36:57.607Z,18.80
2018-09-18T21:39:26.453Z,18.80
2018-09-18T21:41:54.873Z,18.70
2018-09-18T21:44:23.579Z,18.70
2018-09-18T21:46:52.000Z,18.70
2018-09-18T21:49:20.452Z,18.70
2018-09-18T21:51:49.573Z,18.80
2018-09-18T21:54:18.673Z,18.80
2018-09-18T21:56:47.173Z,18.90
2018-09-18T21:59:15.594Z,18.90
2018-09-18T22:01:44.094Z,18.90
2018-09-18T22:04:12.519Z,18.90
2018-09-18T22:06:40.971Z,18.90
2018-09-18T22:09:09.387Z,18.90
2018-09-18T22:11:37.810Z,18.90
2018-09-18T22:14:06.251Z,18.80
2018-09-18T22:16:34.710Z,18.80
2018-09-18T22:19:03.468Z,18.70
2018-09-18T22:21:31.886Z,18.60
2018-09-18T22:24:00.313Z,18.60
2018-09-18T22:26:28.815Z,18.50
2018-09-18T22:28:57.215Z,18.50
2018-09-18T22:31:25.626Z,18.40
2018-09-18T22:33:54.031Z,18.40
2018-09-18T22:36:22.459Z,18.30
2018-09-18T22:38:50.955Z,18.30
2018-09-18T22:41:19.379Z,18.20
2018-09-18T22:43:47.785Z,18.20
2018-09-18T22:46:16.212Z,18.10
2018-09-18T22:48:44.683Z,18.10
2018-09-18T22:51:13.113Z,18.00
2018-09-18T22:53:41.600Z,18.00
2018-09-18T22:56:10.030Z,17.90
2018-09-18T22:58:38.505Z,17.90
2018-09-18T23:01:06.916Z,17.80
2018-09-18T23:03:35.390Z,17.70
2018-09-18T23:06:03.857Z,17.70
2018-09-18T23:08:32.327Z,17.70
2018-09-18T23:11:00.822Z,17.60
2018-09-18T23:13:29.256Z,17.60
2018-09-18T23:15:57.670Z,17.60
2018-09-18T23:18:26.098Z,17.60
2018-09-18T23:20:54.886Z,17.50
2018-09-18T23:23:23.387Z,17.50
2018-09-18T23:25:51.802Z,17.40
2018-09-18T23:28:20.238Z,17.40
2018-09-18T23:30:48.666Z,17.40
2018-09-18T23:33:17.090Z,17.40
2018-09-18T23:35:45.534Z,17.30
2018-09-18T23:38:14.020Z,17.30
2018-09-18T23:40:42.430Z,17.30
2018-09-18T23:43:10.871Z,17.30
2018-09-18T23:45:39.306Z,17.20
2018-09-18T23:48:07.759Z,17.20
2018-09-18T23:50:36.166Z,17.20
2018-09-18T23:53:04.655Z,17.20
2018-09-18T23:55:33.408Z,17.20
2018-09-18T23:58:01.809Z,17.10
